createdAt,value
2023-01-20T00:00:46.311Z,0.00
2023-01-20T00:01:46.966Z,0.00
2023-01-20T00:02:47.992Z,0.00
2023-01-20T00:03:48.667Z,0.00
2023-01-20T00:04:49.379Z,0.00
2023-01-20T00:05:50.058Z,0.00
2023-01-20T00:06:50.763Z,0.00
2023-01-20T00:07:51.474Z,0.00
2023-01-20T00:08:52.181Z,0.00
2023-01-20T00:09:52.910Z,0.00
2023-01-20T00:10:53.608Z,0.00
2023-01-20T00:11:54.311Z,0.00
2023-01-20T00:12:55.003Z,0.00
2023-01-20T00:13:55.714Z,0.00
2023-01-20T00:14:56.473Z,0.00
2023-01-20T00:15:57.172Z,0.00
2023-01-20T00:16:57.885Z,0.00
2023-01-20T00:17:58.587Z,0.00
2023-01-20T00:18:59.297Z,0.00
2023-01-20T00:19:59.992Z,0.00
2023-01-20T00:21:00.703Z,0.00
2023-01-20T00:22:01.401Z,0.00
2023-01-20T00:23:02.438Z,0.00
2023-01-20T00:24:02.639Z,0.00
2023-01-20T00:25:03.369Z,0.00
2023-01-20T00:26:04.069Z,0.00
2023-01-20T00:27:04.737Z,0.00
2023-01-20T00:28:05.444Z,0.00
2023-01-20T00:29:06.157Z,0.00
2023-01-20T00:30:06.853Z,0.00
2023-01-20T00:31:07.601Z,0.00
2023-01-20T00:32:08.263Z,0.00
2023-01-20T00:33:08.984Z,0.00
2023-01-20T00:34:09.676Z,0.00
2023-01-20T00:35:10.487Z,0.00
2023-01-20T00:36:11.155Z,0.00
2023-01-20T00:37:11.857Z,0.00
2023-01-20T00:38:12.569Z,0.00
2023-01-20T00:39:13.277Z,0.00
2023-01-20T00:40:13.997Z,0.00
2023-01-20T00:41:14.709Z,0.00
2023-01-20T00:42:15.385Z,0.00
2023-01-20T00:43:16.427Z,0.00
2023-01-20T00:44:16.639Z,0.00
2023-01-20T00:45:17.342Z,0.00
2023-01-20T00:46:18.094Z,0.00
2023-01-20T00:47:18.777Z,0.00
2023-01-20T00:48:19.924Z,0.00
2023-01-20T00:49:20.129Z,0.00
2023-01-20T00:50:20.843Z,0.00
2023-01-20T00:51:21.576Z,0.00
2023-01-20T00:52:22.255Z,0.00
2023-01-20T00:53:23.435Z,0.00
2023-01-20T00:54:23.635Z,0.00
2023-01-20T00:55:24.354Z,0.00
2023-01-20T00:56:25.132Z,0.00
2023-01-20T00:57:25.765Z,0.00
2023-01-20T00:58:26.481Z,0.00
2023-01-20T00:59:27.175Z,0.00
2023-01-20T01:00:27.904Z,0.00
2023-01-20T01:01:28.711Z,0.00
2023-01-20T01:02:29.425Z,0.00
2023-01-20T01:03:30.427Z,0.00
2023-01-20T01:04:30.641Z,0.00
2023-01-20T01:05:31.341Z,0.00
2023-01-20T01:06:32.046Z,0.00
2023-01-20T01:07:32.751Z,0.00
2023-01-20T01:08:33.927Z,0.00
2023-01-20T01:09:34.160Z,0.00
2023-01-20T01:10:34.871Z,0.00
2023-01-20T01:11:35.568Z,0.00
2023-01-20T01:12:36.257Z,0.00
2023-01-20T01:13:36.978Z,0.00
2023-01-20T01:14:37.681Z,0.00
2023-01-20T01:15:38.387Z,0.00
2023-01-20T01:16:39.096Z,0.00
2023-01-20T01:17:39.802Z,0.00
2023-01-20T01:18:40.952Z,0.00
2023-01-20T01:19:41.169Z,0.00
2023-01-20T01:20:41.875Z,0.00
2023-01-20T01:21:42.588Z,0.00
2023-01-20T01:22:43.290Z,0.00
2023-01-20T01:23:44.053Z,0.00
2023-01-20T01:24:44.727Z,0.00
2023-01-20T01:25:45.459Z,0.00
2023-01-20T01:26:46.204Z,0.00
2023-01-20T01:27:46.883Z,0.00
2023-01-20T01:28:47.596Z,0.00
2023-01-20T01:29:48.306Z,0.00
2023-01-20T01:30:49.042Z,0.00
2023-01-20T01:31:49.723Z,0.00
2023-01-20T01:32:50.466Z,0.00
2023-01-20T01:33:51.432Z,0.00
2023-01-20T01:34:51.638Z,0.00
2023-01-20T01:35:52.341Z,0.00
2023-01-20T01:36:53.048Z,0.00
2023-01-20T01:37:53.774Z,0.00
2023-01-20T01:38:57.262Z,0.00
2023-01-20T01:39:55.243Z,0.00
2023-01-20T01:40:55.963Z,0.00
2023-01-20T01:41:56.693Z,0.00
2023-01-20T01:42:57.362Z,0.00
2023-01-20T01:43:58.425Z,0.00
2023-01-20T01:44:58.633Z,0.00
2023-01-20T01:45:59.349Z,0.00
2023-01-20T01:47:00.130Z,0.00
2023-01-20T01:48:00.833Z,0.00
2023-01-20T01:49:01.926Z,0.00
2023-01-20T01:50:02.144Z,0.00
2023-01-20T01:51:02.858Z,0.00
2023-01-20T01:52:03.547Z,0.00
2023-01-20T01:53:04.249Z,0.00
2023-01-20T01:54:04.960Z,0.00
2023-01-20T01:55:05.693Z,0.00
2023-01-20T01:56:06.419Z,0.00
2023-01-20T01:57:07.145Z,0.00
2023-01-20T01:58:07.800Z,0.00
2023-01-20T01:59:08.524Z,0.00
2023-01-20T02:00:09.235Z,0.00
2023-01-20T02:01:10.029Z,0.00
2023-01-20T02:02:10.736Z,0.00
2023-01-20T02:03:11.419Z,0.00
2023-01-20T02:04:12.134Z,0.00
2023-01-20T02:05:12.849Z,0.00
2023-01-20T02:06:13.543Z,0.00
2023-01-20T02:07:14.253Z,0.00
2023-01-20T02:08:14.954Z,0.00
2023-01-20T02:09:15.928Z,0.00
2023-01-20T02:10:16.643Z,0.00
2023-01-20T02:11:17.365Z,0.00
2023-01-20T02:12:18.073Z,0.00
2023-01-20T02:13:18.762Z,0.00
2023-01-20T02:14:19.928Z,0.00
2023-01-20T02:15:20.132Z,0.00
2023-01-20T02:16:20.885Z,0.00
2023-01-20T02:17:21.552Z,0.00
2023-01-20T02:18:22.253Z,0.00
2023-01-20T02:19:22.973Z,0.00
2023-01-20T02:20:23.674Z,0.00
2023-01-20T02:21:24.377Z,0.00
2023-01-20T02:22:25.085Z,0.00
2023-01-20T02:23:25.792Z,0.00
2023-01-20T02:24:27.404Z,0.00
2023-01-20T02:25:27.111Z,0.00
2023-01-20T02:26:27.840Z,0.00
2023-01-20T02:27:28.544Z,0.00
2023-01-20T02:28:29.233Z,0.00
2023-01-20T02:29:30.436Z,0.00
2023-01-20T02:30:30.657Z,0.00
2023-01-20T02:31:31.413Z,0.00
2023-01-20T02:32:32.073Z,0.00
2023-01-20T02:33:32.777Z,0.00
2023-01-20T02:34:33.925Z,0.00
2023-01-20T02:35:34.136Z,0.00
2023-01-20T02:36:34.842Z,0.00
2023-01-20T02:37:35.547Z,0.00
2023-01-20T02:38:36.253Z,0.00
2023-01-20T02:39:37.438Z,0.00
2023-01-20T02:40:37.647Z,0.00
2023-01-20T02:41:38.382Z,0.00
2023-01-20T02:42:39.084Z,0.00
2023-01-20T02:43:39.750Z,0.00
2023-01-20T02:44:40.475Z,0.00
2023-01-20T02:45:41.197Z,0.00
2023-01-20T02:46:41.880Z,0.00
2023-01-20T02:47:42.584Z,0.00
2023-01-20T02:48:44.275Z,0.00
2023-01-20T02:49:44.013Z,0.00
2023-01-20T02:50:44.724Z,0.00
2023-01-20T02:51:45.429Z,0.00
2023-01-20T02:52:46.223Z,0.00
2023-01-20T02:53:46.927Z,0.00
2023-01-20T02:54:47.655Z,0.00
2023-01-20T02:55:48.348Z,0.00
2023-01-20T02:56:49.071Z,0.00
2023-01-20T02:57:49.786Z,0.00
2023-01-20T02:58:50.449Z,0.00
2023-01-20T02:59:51.147Z,0.00
2023-01-20T03:00:51.917Z,0.00
2023-01-20T03:01:52.640Z,0.00
2023-01-20T03:02:53.330Z,0.00
2023-01-20T03:03:54.089Z,0.00
2023-01-20T03:04:54.954Z,0.00
2023-01-20T03:05:55.673Z,0.00
2023-01-20T03:06:56.349Z,0.00
2023-01-20T03:07:57.052Z,0.00
2023-01-20T03:08:57.756Z,0.00
2023-01-20T03:09:58.933Z,0.00
2023-01-20T03:10:59.145Z,0.00
2023-01-20T03:11:59.862Z,0.00
2023-01-20T03:13:00.583Z,0.00
2023-01-20T03:14:01.272Z,0.00
2023-01-20T03:15:01.979Z,0.00
2023-01-20T03:16:02.688Z,0.00
2023-01-20T03:17:03.388Z,0.00
2023-01-20T03:18:04.097Z,0.00
2023-01-20T03:19:04.801Z,0.00
2023-01-20T03:20:05.942Z,0.00
2023-01-20T03:21:06.140Z,0.00
2023-01-20T03:22:06.844Z,0.00
2023-01-20T03:23:07.552Z,0.00
2023-01-20T03:24:08.263Z,0.00
2023-01-20T03:25:09.447Z,0.00
2023-01-20T03:26:09.649Z,0.00
2023-01-20T03:27:10.376Z,0.00
2023-01-20T03:28:11.096Z,0.00
2023-01-20T03:29:11.768Z,0.00
2023-01-20T03:30:12.929Z,0.00
2023-01-20T03:31:13.285Z,0.00
2023-01-20T03:32:13.993Z,0.00
2023-01-20T03:33:14.699Z,0.00
2023-01-20T03:34:15.404Z,0.00
2023-01-20T03:35:16.667Z,0.00
2023-01-20T03:36:16.948Z,0.00
2023-01-20T03:37:17.661Z,0.00
2023-01-20T03:38:18.368Z,0.00
2023-01-20T03:39:19.070Z,0.00
2023-01-20T03:40:19.785Z,0.00
2023-01-20T03:41:20.493Z,0.00
2023-01-20T03:42:21.218Z,0.00
2023-01-20T03:43:21.964Z,0.00
2023-01-20T03:44:22.591Z,0.00
2023-01-20T03:45:23.306Z,0.00
2023-01-20T03:46:24.012Z,0.00
2023-01-20T03:47:24.717Z,0.00
2023-01-20T03:48:25.424Z,0.00
2023-01-20T03:49:26.134Z,0.00
2023-01-20T03:50:26.934Z,0.00
2023-01-20T03:51:27.710Z,0.00
2023-01-20T03:52:48.120Z,0.00
2023-01-20T03:53:30.044Z,0.00
2023-01-20T03:54:29.729Z,0.00
2023-01-20T03:55:30.442Z,0.00
2023-01-20T03:56:31.156Z,0.00
2023-01-20T03:57:31.895Z,0.00
2023-01-20T03:58:32.593Z,0.00
2023-01-20T03:59:33.268Z,0.00
2023-01-20T04:00:33.977Z,0.00
2023-01-20T04:01:34.759Z,0.00
2023-01-20T04:02:35.434Z,0.00
2023-01-20T04:03:36.169Z,0.00
2023-01-20T04:04:36.843Z,0.00
2023-01-20T04:05:37.562Z,0.00
2023-01-20T04:06:38.273Z,0.00
2023-01-20T04:07:38.973Z,0.00
2023-01-20T04:08:39.678Z,0.00
2023-01-20T04:09:40.385Z,0.00
2023-01-20T04:10:41.104Z,0.00
2023-01-20T04:11:41.806Z,0.00
2023-01-20T04:12:42.533Z,0.00
2023-01-20T04:13:43.234Z,0.00
2023-01-20T04:14:43.896Z,0.00
2023-01-20T04:15:44.716Z,0.00
2023-01-20T04:16:45.402Z,0.00
2023-01-20T04:17:46.134Z,0.00
2023-01-20T04:18:46.814Z,0.00
2023-01-20T04:19:47.524Z,0.00
2023-01-20T04:20:48.442Z,0.00
2023-01-20T04:21:49.135Z,0.00
2023-01-20T04:22:49.851Z,0.00
2023-01-20T04:23:50.559Z,0.00
2023-01-20T04:24:51.263Z,0.00
2023-01-20T04:25:52.448Z,0.00
2023-01-20T04:26:52.650Z,0.00
2023-01-20T04:27:53.403Z,0.00
2023-01-20T04:28:54.080Z,0.00
2023-01-20T04:29:54.748Z,0.00
2023-01-20T04:30:56.007Z,0.00
2023-01-20T04:31:56.193Z,0.00
2023-01-20T04:32:56.864Z,0.00
2023-01-20T04:33:57.583Z,0.00
2023-01-20T04:34:58.271Z,0.00
2023-01-20T04:35:59.004Z,0.00
2023-01-20T04:36:59.687Z,0.00
2023-01-20T04:38:00.400Z,0.00
2023-01-20T04:39:01.103Z,0.00
2023-01-20T04:40:01.811Z,0.00
2023-01-20T04:41:03.676Z,0.00
2023-01-20T04:42:03.354Z,0.00
2023-01-20T04:43:04.105Z,0.00
2023-01-20T04:44:04.803Z,0.00
2023-01-20T04:45:05.450Z,0.00
2023-01-20T04:46:06.447Z,0.00
2023-01-20T04:47:07.144Z,0.00
2023-01-20T04:48:07.860Z,0.00
2023-01-20T04:49:08.566Z,0.00
2023-01-20T04:50:09.273Z,0.00
2023-01-20T04:51:10.431Z,0.00
2023-01-20T04:52:10.641Z,0.00
2023-01-20T04:53:11.347Z,0.00
2023-01-20T04:54:12.068Z,0.00
2023-01-20T04:55:13.165Z,0.00
2023-01-20T04:56:13.548Z,0.00
2023-01-20T04:57:14.239Z,0.00
2023-01-20T04:58:14.967Z,0.00
2023-01-20T04:59:15.669Z,0.00
2023-01-20T05:00:16.405Z,0.00
2023-01-20T05:01:17.541Z,0.00
2023-01-20T05:02:17.850Z,0.00
2023-01-20T05:03:18.544Z,0.00
2023-01-20T05:04:19.247Z,0.00
2023-01-20T05:05:19.966Z,0.00
2023-01-20T05:06:20.932Z,0.00
2023-01-20T05:07:21.648Z,0.00
2023-01-20T05:08:22.354Z,0.00
2023-01-20T05:09:23.048Z,0.00
2023-01-20T05:10:23.751Z,0.00
2023-01-20T05:11:24.940Z,0.00
2023-01-20T05:12:25.140Z,0.00
2023-01-20T05:13:25.866Z,0.00
2023-01-20T05:14:26.576Z,0.00
2023-01-20T05:15:27.238Z,0.00
2023-01-20T05:16:28.429Z,0.00
2023-01-20T05:17:28.640Z,0.00
2023-01-20T05:18:29.340Z,0.00
2023-01-20T05:19:30.056Z,0.00
2023-01-20T05:20:30.750Z,0.00
2023-01-20T05:21:31.471Z,0.00
2023-01-20T05:22:32.171Z,0.00
2023-01-20T05:23:32.891Z,0.00
2023-01-20T05:24:33.599Z,0.00
2023-01-20T05:25:34.319Z,0.00
2023-01-20T05:26:35.443Z,0.00
2023-01-20T05:27:35.678Z,0.00
2023-01-20T05:28:36.379Z,0.00
2023-01-20T05:29:37.105Z,0.00
2023-01-20T05:30:37.895Z,0.00
2023-01-20T05:31:39.052Z,0.00
2023-01-20T05:32:39.235Z,0.00
2023-01-20T05:33:39.955Z,0.00
2023-01-20T05:34:40.648Z,0.00
2023-01-20T05:35:41.358Z,0.00
2023-01-20T05:36:42.432Z,0.00
2023-01-20T05:37:42.645Z,0.00
2023-01-20T05:38:43.352Z,0.00
2023-01-20T05:39:44.063Z,0.00
2023-01-20T05:40:44.767Z,0.00
2023-01-20T05:41:45.959Z,0.00
2023-01-20T05:42:46.152Z,0.00
2023-01-20T05:43:46.880Z,0.00
2023-01-20T05:44:47.606Z,0.00
2023-01-20T05:45:48.263Z,0.00
2023-01-20T05:46:48.983Z,0.00
2023-01-20T05:47:49.680Z,0.00
2023-01-20T05:48:50.391Z,0.00
2023-01-20T05:49:51.090Z,0.00
2023-01-20T05:50:51.796Z,0.00
2023-01-20T05:51:52.510Z,0.00
2023-01-20T05:52:53.227Z,0.00
2023-01-20T05:53:53.927Z,0.00
2023-01-20T05:54:54.632Z,0.00
2023-01-20T05:55:55.337Z,0.00
2023-01-20T05:56:56.435Z,0.00
2023-01-20T05:57:56.636Z,0.00
2023-01-20T05:58:57.392Z,0.00
2023-01-20T05:59:58.060Z,0.00
2023-01-20T06:00:58.855Z,0.00
2023-01-20T06:01:59.533Z,0.00
2023-01-20T06:03:00.306Z,0.00
2023-01-20T06:04:01.029Z,0.00
2023-01-20T06:05:01.685Z,0.00
2023-01-20T06:06:02.398Z,0.00
2023-01-20T06:07:03.104Z,0.00
2023-01-20T06:08:03.807Z,0.00
2023-01-20T06:09:04.510Z,0.00
2023-01-20T06:10:05.225Z,0.00
2023-01-20T06:11:05.931Z,0.00
2023-01-20T06:12:06.644Z,0.00
2023-01-20T06:13:07.350Z,0.00
2023-01-20T06:14:08.074Z,0.00
2023-01-20T06:15:08.798Z,0.00
2023-01-20T06:16:09.497Z,0.00
2023-01-20T06:17:10.181Z,0.00
2023-01-20T06:18:10.891Z,0.00
2023-01-20T06:19:11.593Z,0.00
2023-01-20T06:20:12.302Z,0.00
2023-01-20T06:21:13.010Z,0.00
2023-01-20T06:22:13.717Z,0.00
2023-01-20T06:23:14.427Z,0.00
2023-01-20T06:24:15.138Z,0.00
2023-01-20T06:25:16.127Z,0.00
2023-01-20T06:26:16.402Z,0.00
2023-01-20T06:27:17.143Z,0.00
2023-01-20T06:28:17.855Z,0.00
2023-01-20T06:29:18.565Z,0.00
2023-01-20T06:30:19.266Z,0.00
2023-01-20T06:31:19.995Z,0.00
2023-01-20T06:32:20.682Z,0.00
2023-01-20T06:33:21.388Z,0.00
2023-01-20T06:34:22.102Z,0.00
2023-01-20T06:35:22.802Z,0.00
2023-01-20T06:36:23.519Z,0.00
2023-01-20T06:37:24.230Z,0.00
2023-01-20T06:38:24.939Z,0.00
2023-01-20T06:39:25.642Z,0.00
2023-01-20T06:40:26.348Z,0.00
2023-01-20T06:41:27.054Z,0.00
2023-01-20T06:42:27.782Z,0.00
2023-01-20T06:43:28.487Z,0.00
2023-01-20T06:44:29.209Z,0.00
2023-01-20T06:45:29.916Z,0.00
2023-01-20T06:46:30.648Z,0.00
2023-01-20T06:47:31.324Z,0.00
2023-01-20T06:48:32.021Z,0.00
2023-01-20T06:49:32.725Z,0.00
2023-01-20T06:50:33.429Z,0.00
2023-01-20T06:51:34.137Z,0.00
2023-01-20T06:52:34.884Z,0.00
2023-01-20T06:53:35.556Z,0.00
2023-01-20T06:54:36.273Z,0.00
2023-01-20T06:55:36.967Z,0.00
2023-01-20T06:56:37.681Z,0.00
2023-01-20T06:57:38.388Z,0.00
2023-01-20T06:58:39.113Z,0.00
2023-01-20T06:59:39.831Z,0.00
2023-01-20T07:00:40.600Z,0.00
2023-01-20T07:01:41.486Z,0.00
2023-01-20T07:02:42.260Z,0.00
2023-01-20T07:03:42.902Z,0.00
2023-01-20T07:04:43.612Z,0.00
2023-01-20T07:05:44.325Z,0.00
2023-01-20T07:06:45.029Z,0.00
2023-01-20T07:07:45.934Z,0.00
2023-01-20T07:08:46.644Z,0.00
2023-01-20T07:09:47.371Z,0.00
2023-01-20T07:10:48.062Z,0.00
2023-01-20T07:11:48.764Z,0.00
2023-01-20T07:12:49.948Z,0.00
2023-01-20T07:13:50.159Z,0.00
2023-01-20T07:14:50.883Z,0.00
2023-01-20T07:15:51.587Z,0.00
2023-01-20T07:16:52.310Z,0.00
2023-01-20T07:17:53.433Z,0.00
2023-01-20T07:18:53.689Z,0.00
2023-01-20T07:19:54.355Z,0.00
2023-01-20T07:20:55.076Z,0.00
2023-01-20T07:21:55.802Z,0.00
2023-01-20T07:22:56.930Z,0.00
2023-01-20T07:23:57.141Z,0.00
2023-01-20T07:24:57.853Z,0.00
2023-01-20T07:25:58.549Z,5.62
2023-01-20T07:26:59.254Z,5.62
2023-01-20T07:27:59.984Z,5.62
2023-01-20T07:29:00.710Z,5.62
2023-01-20T07:30:01.410Z,5.62
2023-01-20T07:31:02.188Z,5.62
2023-01-20T07:32:02.896Z,5.62
2023-01-20T07:33:03.932Z,5.62
2023-01-20T07:34:04.140Z,11.25
2023-01-20T07:35:04.847Z,11.25
2023-01-20T07:36:05.560Z,16.88
2023-01-20T07:37:06.264Z,16.88
2023-01-20T07:38:07.436Z,16.88
2023-01-20T07:39:07.659Z,16.88
2023-01-20T07:40:08.370Z,16.88
2023-01-20T07:41:09.079Z,16.88
2023-01-20T07:42:09.788Z,16.88
2023-01-20T07:43:10.939Z,22.50
2023-01-20T07:44:11.190Z,22.50
2023-01-20T07:45:11.958Z,22.50
2023-01-20T07:46:12.669Z,22.50
2023-01-20T07:47:13.336Z,22.50
2023-01-20T07:48:14.438Z,22.50
2023-01-20T07:49:14.644Z,22.50
2023-01-20T07:50:15.351Z,28.12
2023-01-20T07:51:16.092Z,28.12
2023-01-20T07:52:16.762Z,28.12
2023-01-20T07:53:17.938Z,33.75
2023-01-20T07:54:18.137Z,39.38
2023-01-20T07:55:18.850Z,50.62
2023-01-20T07:56:19.567Z,56.25
2023-01-20T07:57:20.286Z,50.62
2023-01-20T07:58:20.983Z,56.25
2023-01-20T07:59:21.693Z,50.62
2023-01-20T08:00:22.466Z,50.62
2023-01-20T08:01:23.267Z,56.25
2023-01-20T08:02:23.948Z,61.88
2023-01-20T08:03:27.269Z,61.88
2023-01-20T08:04:25.607Z,61.88
2023-01-20T08:05:26.288Z,61.88
2023-01-20T08:06:26.999Z,61.88
2023-01-20T08:07:27.696Z,67.50
2023-01-20T08:08:28.432Z,67.50
2023-01-20T08:09:29.140Z,78.75
2023-01-20T08:10:29.883Z,90.00
2023-01-20T08:11:30.552Z,101.25
2023-01-20T08:12:31.268Z,106.88
2023-01-20T08:13:32.441Z,90.00
2023-01-20T08:14:32.641Z,84.38
2023-01-20T08:15:33.374Z,84.38
2023-01-20T08:16:34.207Z,84.38
2023-01-20T08:17:34.884Z,84.38
2023-01-20T08:18:35.936Z,90.00
2023-01-20T08:19:36.140Z,95.62
2023-01-20T08:20:36.849Z,95.62
2023-01-20T08:21:37.588Z,118.12
2023-01-20T08:22:38.296Z,112.50
2023-01-20T08:23:39.000Z,112.50
2023-01-20T08:24:39.708Z,106.88
2023-01-20T08:25:40.417Z,112.50
2023-01-20T08:26:41.134Z,129.38
2023-01-20T08:27:41.919Z,135.00
2023-01-20T08:28:42.619Z,135.00
2023-01-20T08:29:43.338Z,135.00
2023-01-20T08:30:44.141Z,135.00
2023-01-20T08:31:44.993Z,123.75
2023-01-20T08:32:45.648Z,129.38
2023-01-20T08:33:46.437Z,151.88
2023-01-20T08:34:47.145Z,146.25
2023-01-20T08:35:47.856Z,146.25
2023-01-20T08:36:48.562Z,157.50
2023-01-20T08:37:49.277Z,157.50
2023-01-20T08:38:50.441Z,157.50
2023-01-20T08:39:50.637Z,168.75
2023-01-20T08:40:51.367Z,185.62
2023-01-20T08:41:52.058Z,213.75
2023-01-20T08:42:52.762Z,219.38
2023-01-20T08:43:53.934Z,225.00
2023-01-20T08:44:54.150Z,219.38
2023-01-20T08:45:54.945Z,157.50
2023-01-20T08:46:55.612Z,123.75
2023-01-20T08:47:56.299Z,118.12
2023-01-20T08:48:57.440Z,112.50
2023-01-20T08:49:57.649Z,112.50
2023-01-20T08:50:58.391Z,129.38
2023-01-20T08:51:59.082Z,168.75
2023-01-20T08:52:59.786Z,151.88
2023-01-20T08:54:00.943Z,157.50
2023-01-20T08:55:01.162Z,157.50
2023-01-20T08:56:01.871Z,157.50
2023-01-20T08:57:02.592Z,151.88
2023-01-20T08:58:03.298Z,140.62
2023-01-20T08:59:04.029Z,140.62
2023-01-20T09:00:04.731Z,129.38
2023-01-20T09:01:05.475Z,146.25
2023-01-20T09:02:06.170Z,168.75
2023-01-20T09:03:06.847Z,180.00
2023-01-20T09:04:07.900Z,174.38
2023-01-20T09:05:08.074Z,208.12
2023-01-20T09:06:08.780Z,219.38
2023-01-20T09:07:09.527Z,163.12
2023-01-20T09:08:10.195Z,163.12
2023-01-20T09:09:10.912Z,213.75
2023-01-20T09:10:11.617Z,191.25
2023-01-20T09:11:12.336Z,202.50
2023-01-20T09:12:13.024Z,219.38
2023-01-20T09:13:13.739Z,253.12
2023-01-20T09:14:14.446Z,241.88
2023-01-20T09:15:15.397Z,247.50
2023-01-20T09:16:15.993Z,247.50
2023-01-20T09:17:16.653Z,253.12
2023-01-20T09:18:17.352Z,213.75
2023-01-20T09:19:18.446Z,219.38
2023-01-20T09:20:18.657Z,219.38
2023-01-20T09:21:19.358Z,191.25
2023-01-20T09:22:20.070Z,230.62
2023-01-20T09:23:20.806Z,191.25
2023-01-20T09:24:21.940Z,208.12
2023-01-20T09:25:22.148Z,191.25
2023-01-20T09:26:35.351Z,208.12
2023-01-20T09:27:24.455Z,202.50
2023-01-20T09:28:24.164Z,202.50
2023-01-20T09:29:24.890Z,213.75
2023-01-20T09:30:25.613Z,213.75
2023-01-20T09:31:26.618Z,236.25
2023-01-20T09:32:27.290Z,258.75
2023-01-20T09:33:27.963Z,292.50
2023-01-20T09:34:28.937Z,230.62
2023-01-20T09:35:29.648Z,281.25
2023-01-20T09:36:30.379Z,292.50
2023-01-20T09:37:31.073Z,264.38
2023-01-20T09:38:31.773Z,270.00
2023-01-20T09:39:32.950Z,320.62
2023-01-20T09:40:33.171Z,309.38
2023-01-20T09:41:33.917Z,354.38
2023-01-20T09:42:34.622Z,326.25
2023-01-20T09:43:35.331Z,315.00
2023-01-20T09:44:36.049Z,343.12
2023-01-20T09:45:36.763Z,275.62
2023-01-20T09:46:37.595Z,292.50
2023-01-20T09:47:38.299Z,292.50
2023-01-20T09:48:39.014Z,292.50
2023-01-20T09:49:39.958Z,315.00
2023-01-20T09:50:40.657Z,326.25
2023-01-20T09:51:41.374Z,315.00
2023-01-20T09:52:42.061Z,292.50
2023-01-20T09:53:42.901Z,275.62
2023-01-20T09:54:43.939Z,270.00
2023-01-20T09:55:44.152Z,247.50
2023-01-20T09:56:44.869Z,213.75
2023-01-20T09:57:45.577Z,219.38
2023-01-20T09:58:46.275Z,219.38
2023-01-20T09:59:46.993Z,208.12
2023-01-20T10:00:47.705Z,196.88
2023-01-20T10:01:48.512Z,208.12
2023-01-20T10:02:49.202Z,219.38
2023-01-20T10:03:49.840Z,225.00
2023-01-20T10:04:50.652Z,225.00
2023-01-20T10:05:51.294Z,219.38
2023-01-20T10:06:52.017Z,219.38
2023-01-20T10:07:52.709Z,219.38
2023-01-20T10:09:04.949Z,213.75
2023-01-20T10:09:55.027Z,219.38
2023-01-20T10:10:54.750Z,247.50
2023-01-20T10:11:55.469Z,236.25
2023-01-20T10:12:56.162Z,202.50
2023-01-20T10:13:56.874Z,219.38
2023-01-20T10:14:57.939Z,230.62
2023-01-20T10:15:58.178Z,230.62
2023-01-20T10:16:58.885Z,225.00
2023-01-20T10:17:59.644Z,213.75
2023-01-20T10:19:00.309Z,185.62
2023-01-20T10:20:01.266Z,174.38
2023-01-20T10:21:01.949Z,168.75
2023-01-20T10:22:02.669Z,157.50
2023-01-20T10:23:03.360Z,196.88
2023-01-20T10:24:04.059Z,264.38
2023-01-20T10:25:04.777Z,298.12
2023-01-20T10:26:05.483Z,343.12
2023-01-20T10:27:06.188Z,303.75
2023-01-20T10:28:06.895Z,348.75
2023-01-20T10:29:07.611Z,303.75
2023-01-20T10:30:08.341Z,331.88
2023-01-20T10:31:09.147Z,320.62
2023-01-20T10:32:09.844Z,348.75
2023-01-20T10:33:10.574Z,275.62
2023-01-20T10:34:11.238Z,303.75
2023-01-20T10:35:12.465Z,275.62
2023-01-20T10:36:12.652Z,292.50
2023-01-20T10:37:13.353Z,298.12
2023-01-20T10:38:14.152Z,326.25
2023-01-20T10:39:14.874Z,326.25
2023-01-20T10:40:15.856Z,343.12
2023-01-20T10:41:18.709Z,315.00
2023-01-20T10:42:17.215Z,371.25
2023-01-20T10:43:17.926Z,455.62
2023-01-20T10:44:18.629Z,517.50
2023-01-20T10:45:19.340Z,450.00
2023-01-20T10:46:20.098Z,388.12
2023-01-20T10:47:20.781Z,326.25
2023-01-20T10:48:21.487Z,348.75
2023-01-20T10:49:22.178Z,382.50
2023-01-20T10:50:23.087Z,495.00
2023-01-20T10:51:23.831Z,483.75
2023-01-20T10:52:24.557Z,506.25
2023-01-20T10:53:25.245Z,455.62
2023-01-20T10:54:25.975Z,433.12
2023-01-20T10:55:26.943Z,461.25
2023-01-20T10:56:27.650Z,489.38
2023-01-20T10:57:28.355Z,360.00
2023-01-20T10:58:29.080Z,388.12
2023-01-20T10:59:29.783Z,427.50
2023-01-20T11:00:30.949Z,590.62
2023-01-20T11:01:31.172Z,489.38
2023-01-20T11:02:32.023Z,495.00
2023-01-20T11:03:32.740Z,528.75
2023-01-20T11:04:33.428Z,562.50
2023-01-20T11:05:34.119Z,528.75
2023-01-20T11:06:34.860Z,523.12
2023-01-20T11:07:36.445Z,562.50
2023-01-20T11:08:36.211Z,461.25
2023-01-20T11:09:36.904Z,382.50
2023-01-20T11:10:37.939Z,360.00
2023-01-20T11:11:38.152Z,326.25
2023-01-20T11:12:38.855Z,303.75
2023-01-20T11:13:39.562Z,275.62
2023-01-20T11:14:40.267Z,270.00
2023-01-20T11:15:40.995Z,241.88
2023-01-20T11:16:41.714Z,225.00
2023-01-20T11:17:42.428Z,253.12
2023-01-20T11:18:43.127Z,281.25
2023-01-20T11:19:43.796Z,286.88
2023-01-20T11:20:44.514Z,241.88
2023-01-20T11:21:45.288Z,236.25
2023-01-20T11:22:46.137Z,253.12
2023-01-20T11:23:47.019Z,253.12
2023-01-20T11:24:47.734Z,253.12
2023-01-20T11:25:48.440Z,241.88
2023-01-20T11:26:49.149Z,236.25
2023-01-20T11:27:49.887Z,196.88
2023-01-20T11:28:50.588Z,185.62
2023-01-20T11:29:51.281Z,191.25
2023-01-20T11:30:52.530Z,202.50
2023-01-20T11:31:52.849Z,196.88
2023-01-20T11:32:53.520Z,185.62
2023-01-20T11:33:54.225Z,180.00
2023-01-20T11:34:54.865Z,168.75
2023-01-20T11:35:55.672Z,180.00
2023-01-20T11:36:56.375Z,213.75
2023-01-20T11:37:57.116Z,241.88
2023-01-20T11:38:57.810Z,230.62
2023-01-20T11:39:58.529Z,219.38
2023-01-20T11:40:59.245Z,225.00
2023-01-20T11:41:59.954Z,219.38
2023-01-20T11:43:00.656Z,219.38
2023-01-20T11:44:01.366Z,219.38
2023-01-20T11:45:21.560Z,225.00
2023-01-20T11:46:03.683Z,241.88
2023-01-20T11:47:03.391Z,258.75
2023-01-20T11:48:04.223Z,275.62
2023-01-20T11:49:04.871Z,281.25
2023-01-20T11:50:05.558Z,264.38
2023-01-20T11:51:06.285Z,281.25
2023-01-20T11:52:06.989Z,292.50
2023-01-20T11:53:07.705Z,281.25
2023-01-20T11:54:08.418Z,292.50
2023-01-20T11:55:09.176Z,303.75
2023-01-20T11:56:09.979Z,326.25
2023-01-20T11:57:10.678Z,450.00
2023-01-20T11:58:11.380Z,371.25
2023-01-20T11:59:12.109Z,438.75
2023-01-20T12:00:13.202Z,736.88
2023-01-20T12:01:13.499Z,393.75
2023-01-20T12:02:14.233Z,365.62
2023-01-20T12:03:14.922Z,371.25
2023-01-20T12:04:15.707Z,382.50
2023-01-20T12:05:16.410Z,405.00
2023-01-20T12:06:17.112Z,393.75
2023-01-20T12:07:17.844Z,388.12
2023-01-20T12:08:18.542Z,360.00
2023-01-20T12:09:19.267Z,315.00
2023-01-20T12:10:19.961Z,309.38
2023-01-20T12:11:20.672Z,286.88
2023-01-20T12:12:21.386Z,264.38
2023-01-20T12:13:22.086Z,264.38
2023-01-20T12:14:22.805Z,292.50
2023-01-20T12:15:23.501Z,303.75
2023-01-20T12:16:24.290Z,298.12
2023-01-20T12:17:24.953Z,315.00
2023-01-20T12:18:25.676Z,320.62
2023-01-20T12:19:26.396Z,309.38
2023-01-20T12:20:27.075Z,281.25
2023-01-20T12:21:27.819Z,292.50
2023-01-20T12:22:28.494Z,320.62
2023-01-20T12:23:29.197Z,444.38
2023-01-20T12:24:42.420Z,326.25
2023-01-20T12:25:31.512Z,286.88
2023-01-20T12:26:31.228Z,281.25
2023-01-20T12:27:31.942Z,286.88
2023-01-20T12:28:32.644Z,281.25
2023-01-20T12:29:33.372Z,331.88
2023-01-20T12:30:34.116Z,326.25
2023-01-20T12:31:34.986Z,298.12
2023-01-20T12:32:35.824Z,315.00
2023-01-20T12:33:36.573Z,354.38
2023-01-20T12:34:37.226Z,388.12
2023-01-20T12:35:37.882Z,337.50
2023-01-20T12:36:38.965Z,270.00
2023-01-20T12:37:39.164Z,270.00
2023-01-20T12:38:39.870Z,258.75
2023-01-20T12:39:40.576Z,258.75
2023-01-20T12:40:41.292Z,258.75
2023-01-20T12:41:41.998Z,241.88
2023-01-20T12:42:42.709Z,241.88
2023-01-20T12:43:43.413Z,281.25
2023-01-20T12:44:44.126Z,213.75
2023-01-20T12:45:44.867Z,208.12
2023-01-20T12:46:45.558Z,191.25
2023-01-20T12:47:46.258Z,180.00
2023-01-20T12:48:46.995Z,174.38
2023-01-20T12:49:47.697Z,168.75
2023-01-20T12:50:48.358Z,157.50
2023-01-20T12:51:49.076Z,163.12
2023-01-20T12:52:49.782Z,157.50
2023-01-20T12:53:50.489Z,163.12
2023-01-20T12:54:51.196Z,174.38
2023-01-20T12:55:52.862Z,202.50
2023-01-20T12:56:52.561Z,230.62
2023-01-20T12:57:53.262Z,270.00
2023-01-20T12:58:53.983Z,298.12
2023-01-20T12:59:54.671Z,281.25
2023-01-20T13:00:55.410Z,270.00
2023-01-20T13:01:56.104Z,270.00
2023-01-20T13:02:56.896Z,253.12
2023-01-20T13:03:57.606Z,258.75
2023-01-20T13:04:58.336Z,253.12
2023-01-20T13:05:58.968Z,236.25
2023-01-20T13:06:59.700Z,236.25